FAKT weather

Kitty Hawk Airport
Boschkop, Gauteng, South Africa

Public forecast

Using degrees Celsius for public forecast. Weather courtesy of forecast.io.

METAR (pilot weather report)

Report is more than 6 hours old.

Closest report is Waterkloof Air Force Base, 12.4 nm (23.0 km) W. Retrieved 2019/05/23 19:00 UTC (9 hours ago):

FAWK 231900Z AUTO 16003KT //// // ////// ///// Q1028

TAF (pilot weather forecast)

Forecast is more than 12 hours old.

Closest forecast is Waterkloof Air Force Base, 12.4 nm (23.0 km) W. Retrieved 2019/01/10 07:00 UTC (4 months ago):

TAF FAWK 100800Z 1007/1018 33007KT 9999 SCT035 PROB30 TEMPO 1007/1009 -TSRA FEW035CB BECMG 1010/1012 CAVOK PROB30 TEMPO 1016/1018 VRB03KT SCT030 FEW035TCU TX30/1013Z TN25/1018Z